Tonos — V7EF2 — position and weather

sailwx.info

Track history (hours):
 
Tides and Currents Weather Stations Pressure Air Temp Water Temp Dewpoint Dewpoint Depression Visibility Wind Speed Wind Dir Waves Ship Positions

Tonos

Last reported at 2018-Jan-11 02:19 UTC. Time now 2018-Jan-18 00:09 UTC.
Position N 21°59' E 121°13'.

Length 276 m; draft 9.1 m.

Type: Tanker. MMSI: 538006541.

Date/timePositionNaut miles runAvg speedWind from/ knotsBaromVisibWave heightAir tempDewpointWater temp
2018-Jan-11 02:19N 21°59' E 121°13'513.1
2018-Jan-11 01:57N 22°03' E 121°16'612.6
2018-Jan-11 01:30N 22°08' E 121°20'712.6
2018-Jan-11 00:57N 22°13' E 121°24'1312.9
2018-Jan-10 23:57N 22°24' E 121°32'613.4
2018-Jan-10 23:30N 22°29' E 121°35'813.4
2018-Jan-10 22:52N 22°37' E 121°40'613.2
2018-Jan-10 22:24N 22°42' E 121°42'613.5
2018-Jan-10 21:59N 22°47' E 121°45'613.3
2018-Jan-10 21:30N 22°53' E 121°47'1912.5
2018-Jan-10 19:58N 23°11' E 121°55'5812.9
2018-Jan-10 15:29N 24°04' E 122°20'712.5
2018-Jan-10 14:54N 24°11' E 122°23'512.3
2018-Jan-10 14:30N 24°16' E 122°25'612.5
2018-Jan-10 14:00N 24°21' E 122°28'612.7
2018-Jan-10 13:31N 24°27' E 122°30'612.5
2018-Jan-10 13:00N 24°33' E 122°32'612.0
2018-Jan-10 12:30N 24°39' E 122°35'611.7
2018-Jan-10 12:01N 24°44' E 122°38'611.8
2018-Jan-10 11:30N 24°50' E 122°39'611.9
2018-Jan-10 11:01N 24°56' E 122°40'611.9
2018-Jan-10 10:30N 25°02' E 122°41'611.7
2018-Jan-10 10:01N 25°07' E 122°42'611.4
2018-Jan-10 09:30N 25°13' E 122°42'611.1
2018-Jan-10 09:01N 25°18' E 122°44'  
Track history (hours):
 
Tides and Currents Weather Stations Pressure Air Temp Water Temp Dewpoint Dewpoint Depression Visibility Wind Speed Wind Dir Waves Ship Positions

Tonos

Last reported at 2018-Jan-11 02:19 UTC. Time now 2018-Jan-18 00:09 UTC.
Position N 21°59' E 121°13'.

Length 276 m; draft 9.1 m.

Type: Tanker. MMSI: 538006541.

Date/timePositionNaut miles runAvg speedWind from/ knotsBaromVisibWave heightAir tempDewpointWater temp
2018-Jan-11 02:19N 21°59' E 121°13'513.1
2018-Jan-11 01:57N 22°03' E 121°16'612.6
2018-Jan-11 01:30N 22°08' E 121°20'712.6
2018-Jan-11 00:57N 22°13' E 121°24'1312.9
2018-Jan-10 23:57N 22°24' E 121°32'613.4
2018-Jan-10 23:30N 22°29' E 121°35'813.4
2018-Jan-10 22:52N 22°37' E 121°40'613.2
2018-Jan-10 22:24N 22°42' E 121°42'613.5
2018-Jan-10 21:59N 22°47' E 121°45'613.3
2018-Jan-10 21:30N 22°53' E 121°47'1912.5
2018-Jan-10 19:58N 23°11' E 121°55'5812.9
2018-Jan-10 15:29N 24°04' E 122°20'712.5
2018-Jan-10 14:54N 24°11' E 122°23'512.3
2018-Jan-10 14:30N 24°16' E 122°25'612.5
2018-Jan-10 14:00N 24°21' E 122°28'612.7
2018-Jan-10 13:31N 24°27' E 122°30'612.5
2018-Jan-10 13:00N 24°33' E 122°32'612.0
2018-Jan-10 12:30N 24°39' E 122°35'611.7
2018-Jan-10 12:01N 24°44' E 122°38'611.8
2018-Jan-10 11:30N 24°50' E 122°39'611.9
2018-Jan-10 11:01N 24°56' E 122°40'611.9
2018-Jan-10 10:30N 25°02' E 122°41'611.7
2018-Jan-10 10:01N 25°07' E 122°42'611.4
2018-Jan-10 09:30N 25°13' E 122°42'611.1
2018-Jan-10 09:01N 25°18' E 122°44'  

Dump ship's entire track history